createdAt,value
2023-04-27T08:29:47.980Z,39.77
2023-04-27T08:31:50.863Z,39.77
2023-04-27T08:33:53.979Z,39.57
2023-04-27T08:35:56.432Z,39.67
2023-04-27T08:37:59.082Z,39.24
2023-04-27T08:40:01.391Z,40.21
2023-04-27T08:42:14.012Z,41.08
2023-04-27T08:44:16.931Z,41.57
2023-04-27T08:46:27.028Z,41.01
2023-04-27T08:48:29.768Z,40.57
2023-04-27T08:50:32.608Z,40.75
2023-04-27T08:52:34.958Z,40.71
2023-04-27T08:54:37.246Z,40.25
2023-04-27T08:56:39.758Z,39.91
2023-04-27T08:58:42.089Z,39.60
2023-04-27T09:00:45.927Z,39.41
2023-04-27T09:02:49.355Z,40.52
2023-04-27T09:04:52.192Z,40.51
2023-04-27T09:06:54.575Z,40.68
2023-04-27T09:08:57.188Z,41.21
2023-04-27T09:10:59.589Z,40.55
2023-04-27T09:13:01.977Z,40.28
2023-04-27T09:15:06.311Z,40.43
2023-04-27T09:17:09.398Z,40.49
2023-04-27T09:19:12.217Z,40.69
2023-04-27T09:21:29.490Z,40.58
2023-04-27T09:23:34.656Z,40.60
2023-04-27T09:25:36.910Z,40.25
2023-04-27T09:27:40.239Z,40.51
2023-04-27T09:29:42.682Z,39.97
2023-04-27T09:31:45.021Z,40.19
2023-04-27T09:33:55.955Z,39.78
2023-04-27T09:36:03.306Z,39.90
2023-04-27T09:38:06.181Z,39.78
2023-04-27T09:40:09.878Z,39.34
2023-04-27T09:42:13.205Z,39.04
2023-04-27T09:44:16.391Z,39.19
2023-04-27T09:46:19.858Z,39.24
2023-04-27T09:48:23.635Z,38.99
2023-04-27T09:50:25.925Z,39.24
2023-04-27T09:52:28.535Z,38.52
2023-04-27T09:54:34.282Z,38.89
2023-04-27T09:57:16.015Z,39.00
2023-04-27T09:59:46.822Z,38.60
2023-04-27T10:02:07.333Z,38.81
2023-04-27T10:04:25.295Z,38.35
2023-04-27T10:06:59.139Z,38.08
2023-04-27T10:09:06.282Z,37.88
2023-04-27T10:11:16.404Z,37.44
2023-04-27T10:13:24.138Z,37.02
2023-04-27T10:15:30.541Z,36.88
2023-04-27T10:17:36.468Z,37.07
2023-04-27T10:19:38.863Z,36.43
2023-04-27T10:22:02.678Z,36.21
2023-04-27T10:24:09.172Z,36.21
2023-04-27T10:26:11.728Z,35.97
2023-04-27T10:28:18.304Z,36.41
2023-04-27T10:30:26.140Z,36.30
2023-04-27T10:32:29.351Z,35.87
2023-04-27T10:34:35.026Z,35.89
2023-04-27T10:36:39.107Z,37.20
2023-04-27T10:38:42.056Z,36.53
2023-04-27T10:40:46.657Z,36.48
2023-04-27T10:42:49.749Z,36.82
2023-04-27T10:44:56.968Z,37.27
2023-04-27T10:47:13.270Z,37.28
2023-04-27T10:49:16.807Z,37.04
2023-04-27T10:51:19.204Z,36.63
2023-04-27T10:53:21.587Z,35.75
2023-04-27T10:55:24.295Z,35.54
2023-04-27T10:57:26.801Z,35.59
2023-04-27T10:59:29.164Z,34.90
2023-04-27T11:01:32.191Z,33.84
2023-04-27T11:03:34.630Z,33.86
2023-04-27T11:05:37.374Z,34.03
2023-04-27T11:07:39.952Z,33.75
2023-04-27T11:09:42.624Z,33.84
2023-04-27T11:11:46.146Z,34.14
2023-04-27T11:13:50.069Z,34.93
2023-04-27T11:15:59.818Z,35.26
2023-04-27T11:18:06.420Z,35.22
2023-04-27T11:20:09.788Z,35.54
2023-04-27T11:22:12.218Z,34.29
2023-04-27T11:24:15.613Z,32.22
2023-04-27T11:26:26.126Z,29.88
2023-04-27T11:28:28.388Z,27.26
2023-04-27T11:30:31.633Z,26.43
2023-04-27T11:32:34.283Z,27.07
2023-04-27T11:34:38.925Z,27.81
2023-04-27T11:36:41.656Z,27.82
2023-04-27T11:38:44.353Z,28.53
2023-04-27T11:40:47.565Z,29.25
2023-04-27T11:42:58.183Z,29.71
2023-04-27T11:45:01.223Z,29.16
2023-04-27T11:47:04.115Z,28.26
2023-04-27T11:49:08.960Z,27.14
2023-04-27T11:51:14.754Z,23.86
2023-04-27T11:53:18.868Z,21.49
2023-04-27T11:55:22.393Z,21.01
2023-04-27T11:57:29.806Z,19.13
2023-04-27T11:59:32.199Z,19.16
2023-04-27T12:01:38.105Z,19.89
2023-04-27T12:03:41.780Z,20.70
2023-04-27T12:05:51.523Z,21.82
2023-04-27T12:07:54.168Z,24.11
2023-04-27T12:09:57.993Z,25.55
2023-04-27T12:12:02.789Z,27.81
2023-04-27T12:14:05.062Z,28.72
2023-04-27T12:16:07.831Z,25.95
2023-04-27T12:18:11.052Z,24.33
2023-04-27T12:20:14.673Z,24.53
2023-04-27T12:22:17.323Z,26.88
2023-04-27T12:24:20.197Z,28.04
2023-04-27T12:26:22.561Z,28.00
2023-04-27T12:28:25.200Z,27.52
2023-04-27T12:30:27.585Z,25.98
2023-04-27T12:32:29.972Z,25.99
2023-04-27T12:34:32.834Z,24.48
2023-04-27T12:36:35.166Z,23.62
2023-04-27T12:38:37.609Z,21.95
2023-04-27T12:40:40.511Z,20.44
2023-04-27T12:42:42.955Z,20.40
2023-04-27T12:44:45.422Z,21.90
2023-04-27T12:46:48.590Z,23.60
2023-04-27T12:48:51.219Z,22.81
2023-04-27T12:50:53.565Z,21.04
2023-04-27T12:52:56.165Z,20.46
2023-04-27T12:54:59.383Z,19.85
2023-04-27T12:57:04.140Z,21.06
2023-04-27T12:59:06.862Z,21.05
2023-04-27T13:01:14.801Z,21.36
2023-04-27T13:03:17.370Z,22.73
2023-04-27T13:05:21.075Z,25.02
2023-04-27T13:07:23.409Z,24.86
2023-04-27T13:09:25.672Z,25.41
2023-04-27T13:11:28.323Z,24.98
2023-04-27T13:13:31.852Z,25.68
2023-04-27T13:15:34.169Z,25.67
2023-04-27T13:17:37.099Z,24.96
2023-04-27T13:19:39.621Z,24.80
2023-04-27T13:21:42.019Z,25.46
2023-04-27T13:23:44.759Z,26.27
2023-04-27T13:25:47.038Z,26.58
2023-04-27T13:27:50.249Z,26.46
2023-04-27T13:29:52.830Z,27.09
2023-04-27T13:31:56.079Z,27.48
2023-04-27T13:33:58.825Z,26.16
2023-04-27T13:36:02.470Z,25.72
2023-04-27T13:38:04.784Z,25.57
2023-04-27T13:40:10.870Z,26.62
2023-04-27T13:42:13.493Z,26.93
2023-04-27T13:44:16.375Z,27.41
2023-04-27T13:46:19.035Z,27.78
2023-04-27T13:48:22.509Z,27.30
2023-04-27T13:50:25.060Z,26.99
2023-04-27T13:52:27.358Z,26.35
2023-04-27T13:54:30.091Z,26.57
2023-04-27T13:56:32.347Z,27.36
2023-04-27T13:58:34.785Z,27.72
2023-04-27T14:00:37.894Z,28.54
2023-04-27T14:02:41.962Z,28.67
2023-04-27T14:04:44.550Z,28.90
2023-04-27T14:06:46.961Z,29.04
2023-04-27T14:08:49.583Z,28.71
2023-04-27T14:10:51.885Z,28.12
2023-04-27T14:12:54.255Z,28.11
2023-04-27T14:14:58.385Z,27.94
2023-04-27T14:17:01.156Z,28.02
2023-04-27T14:19:03.588Z,27.90
2023-04-27T14:21:06.287Z,27.85
2023-04-27T14:23:11.753Z,28.20
2023-04-27T14:25:14.206Z,28.55
2023-04-27T14:27:17.200Z,28.55
2023-04-27T14:29:19.735Z,28.75
2023-04-27T14:31:22.344Z,28.90
2023-04-27T14:33:25.447Z,29.48
2023-04-27T14:35:28.432Z,28.75
2023-04-27T14:37:30.833Z,28.81
2023-04-27T14:39:33.957Z,29.30
2023-04-27T14:41:37.502Z,29.43
2023-04-27T14:43:39.801Z,29.31
2023-04-27T14:45:52.458Z,29.06
2023-04-27T14:47:56.470Z,28.79
2023-04-27T14:49:59.002Z,26.92
2023-04-27T14:52:04.568Z,26.56
2023-04-27T14:54:08.009Z,27.99
2023-04-27T14:56:11.622Z,27.10
2023-04-27T14:58:14.348Z,27.22
2023-04-27T15:00:17.568Z,27.11
2023-04-27T15:02:21.298Z,26.69
2023-04-27T15:04:23.964Z,27.23
2023-04-27T15:06:28.634Z,27.52
2023-04-27T15:08:34.026Z,27.87
2023-04-27T15:10:37.168Z,29.14
2023-04-27T15:12:39.438Z,29.89
2023-04-27T15:14:41.735Z,30.31
2023-04-27T15:16:44.468Z,30.48
2023-04-27T15:18:47.212Z,30.54
2023-04-27T15:20:53.656Z,30.28
2023-04-27T15:22:56.255Z,31.42
2023-04-27T15:24:58.624Z,31.51
2023-04-27T15:27:01.631Z,31.82
2023-04-27T15:29:04.599Z,31.91
2023-04-27T15:31:06.906Z,32.09
2023-04-27T15:33:10.416Z,32.47
2023-04-27T15:35:13.207Z,32.87
2023-04-27T15:37:16.023Z,32.42
2023-04-27T15:39:18.320Z,32.11
2023-04-27T15:41:20.993Z,32.12
2023-04-27T15:43:23.400Z,32.53
2023-04-27T15:45:27.481Z,33.08
2023-04-27T15:47:30.115Z,32.86
2023-04-27T15:49:39.861Z,33.15
2023-04-27T15:51:49.156Z,33.08
2023-04-27T15:53:51.826Z,33.14
2023-04-27T15:55:54.149Z,33.35
2023-04-27T15:57:56.502Z,33.26
2023-04-27T15:59:59.217Z,33.73
2023-04-27T16:02:01.597Z,34.15
2023-04-27T16:04:04.688Z,34.25
2023-04-27T16:06:07.563Z,34.20
2023-04-27T16:08:10.013Z,34.03
2023-04-27T16:10:13.480Z,33.36
2023-04-27T16:12:15.892Z,33.70
2023-04-27T16:14:18.171Z,33.81
2023-04-27T16:16:20.873Z,33.34
2023-04-27T16:18:23.566Z,33.24
2023-04-27T16:20:28.915Z,33.49
2023-04-27T16:22:31.887Z,34.13
2023-04-27T16:24:34.197Z,34.18
2023-04-27T16:26:36.693Z,34.14
2023-04-27T16:28:39.385Z,34.28
2023-04-27T16:30:41.667Z,34.32
2023-04-27T16:32:44.017Z,34.39
2023-04-27T16:34:46.971Z,34.29
2023-04-27T16:36:49.917Z,34.53
2023-04-27T16:38:52.289Z,34.64
2023-04-27T16:40:56.174Z,34.93
2023-04-27T16:42:58.472Z,34.95
2023-04-27T16:45:02.276Z,35.34
2023-04-27T16:47:04.856Z,35.44
2023-04-27T16:49:07.507Z,35.83
2023-04-27T16:51:12.587Z,35.60
2023-04-27T16:53:19.665Z,35.47
2023-04-27T16:55:22.029Z,35.60
2023-04-27T16:57:24.392Z,35.64
2023-04-27T16:59:26.905Z,35.82
2023-04-27T17:01:30.135Z,36.05
2023-04-27T17:03:34.595Z,36.20
2023-04-27T17:05:37.316Z,36.29
2023-04-27T17:07:39.640Z,36.10
2023-04-27T17:09:42.089Z,36.33
2023-04-27T17:11:44.743Z,36.47
2023-04-27T17:13:49.534Z,36.71
2023-04-27T17:15:51.992Z,36.93
2023-04-27T17:17:55.048Z,36.84
2023-04-27T17:19:57.797Z,37.12
2023-04-27T17:22:00.136Z,37.29
2023-04-27T17:24:03.228Z,37.27
2023-04-27T17:26:07.821Z,37.31
2023-04-27T17:28:10.825Z,37.46
2023-04-27T17:30:13.790Z,37.72
2023-04-27T17:32:16.276Z,37.93
2023-04-27T17:34:18.895Z,38.23
2023-04-27T17:36:21.746Z,38.33
2023-04-27T17:38:24.237Z,38.65
2023-04-27T17:40:26.591Z,38.49
2023-04-27T17:42:29.510Z,38.62
2023-04-27T17:44:31.942Z,38.88
2023-04-27T17:46:34.750Z,39.23
2023-04-27T17:48:38.021Z,39.26
2023-04-27T17:50:41.278Z,39.21
2023-04-27T17:52:44.141Z,39.24
2023-04-27T17:54:47.324Z,39.20
2023-04-27T17:56:49.854Z,39.26
2023-04-27T17:58:52.162Z,39.40
2023-04-27T18:00:55.091Z,39.55
2023-04-27T18:02:57.885Z,39.52
2023-04-27T18:05:00.796Z,39.26
2023-04-27T18:07:03.547Z,39.44
2023-04-27T18:09:07.133Z,39.47
2023-04-27T18:11:09.857Z,39.63
2023-04-27T18:13:13.069Z,39.78
2023-04-27T18:15:16.116Z,39.87
2023-04-27T18:17:18.964Z,39.99
2023-04-27T18:19:21.880Z,40.16
2023-04-27T18:21:26.738Z,40.11
2023-04-27T18:23:29.324Z,40.36
2023-04-27T18:25:32.421Z,40.37
2023-04-27T18:27:37.881Z,40.57
2023-04-27T18:29:40.742Z,40.40
2023-04-27T18:31:43.110Z,40.75
2023-04-27T18:33:46.558Z,40.89
2023-04-27T18:35:49.342Z,41.09
2023-04-27T18:37:53.316Z,41.68
2023-04-27T18:39:56.178Z,41.30
2023-04-27T18:41:59.407Z,41.42
2023-04-27T18:44:06.264Z,41.30
2023-04-27T18:46:09.172Z,41.56
2023-04-27T18:48:11.571Z,42.45
2023-04-27T18:50:17.073Z,42.77
2023-04-27T18:52:19.938Z,43.23
2023-04-27T18:54:22.812Z,43.18
2023-04-27T18:56:26.011Z,43.38
2023-04-27T18:58:29.114Z,43.29
2023-04-27T19:00:35.635Z,43.61
2023-04-27T19:02:39.517Z,44.06
2023-04-27T19:04:49.042Z,45.01
2023-04-27T19:07:00.057Z,44.54
2023-04-27T19:09:02.589Z,44.39
2023-04-27T19:11:05.899Z,44.61
2023-04-27T19:13:10.068Z,44.70
2023-04-27T19:15:14.383Z,44.97
2023-04-27T19:17:19.344Z,45.43
2023-04-27T19:19:22.305Z,45.89
2023-04-27T19:21:25.157Z,46.10
2023-04-27T19:23:27.856Z,46.16
2023-04-27T19:25:30.262Z,46.14
2023-04-27T19:27:32.623Z,46.17
2023-04-27T19:29:50.465Z,46.07
2023-04-27T19:31:54.062Z,46.33
2023-04-27T19:36:06.430Z,46.45
2023-04-27T19:38:10.188Z,46.30
2023-04-27T19:40:13.682Z,46.24
2023-04-27T19:42:16.845Z,46.68
2023-04-27T19:44:20.104Z,47.06
2023-04-27T19:46:22.714Z,47.38
2023-04-27T19:48:26.323Z,47.40
2023-04-27T19:50:29.272Z,47.58
2023-04-27T19:52:31.812Z,47.61
2023-04-27T19:54:38.147Z,47.66
2023-04-27T19:56:41.251Z,47.91
2023-04-27T19:58:44.031Z,48.05
2023-04-27T20:00:47.113Z,47.58
2023-04-27T20:02:53.644Z,47.84
2023-04-27T20:04:56.776Z,48.09
2023-04-27T20:06:59.295Z,48.09
2023-04-27T20:09:02.206Z,48.83
2023-04-27T20:11:04.501Z,48.88
2023-04-27T20:13:07.300Z,49.21
2023-04-27T20:15:10.266Z,49.18
2023-04-27T20:17:12.758Z,49.16
2023-04-27T20:19:17.907Z,49.50
2023-04-27T20:21:21.564Z,49.99
2023-04-27T20:23:23.902Z,50.21
2023-04-27T20:25:26.320Z,50.79
2023-04-27T20:27:28.892Z,52.29
2023-04-27T20:29:31.667Z,53.87
2023-04-27T20:31:34.538Z,54.87
2023-04-27T20:33:37.128Z,55.75
2023-04-27T20:35:40.223Z,56.70
2023-04-27T20:37:43.704Z,57.61
2023-04-27T20:39:46.392Z,58.54
2023-04-27T20:41:49.121Z,59.20
2023-04-27T20:43:52.502Z,59.89
2023-04-27T20:45:55.244Z,60.51
2023-04-27T20:47:58.238Z,61.32
2023-04-27T20:50:01.105Z,60.93
2023-04-27T20:52:03.688Z,60.73
2023-04-27T20:54:06.546Z,58.47
2023-04-27T20:56:09.177Z,56.27
2023-04-27T20:58:11.793Z,55.91
2023-04-27T21:00:15.473Z,55.75
2023-04-27T21:02:17.832Z,56.29
2023-04-27T21:04:20.963Z,55.79
2023-04-27T21:06:23.574Z,55.24
2023-04-27T21:08:26.122Z,56.16
2023-04-27T21:10:28.806Z,56.65
2023-04-27T21:12:31.461Z,57.45
2023-04-27T21:14:34.612Z,57.49
2023-04-27T21:16:37.214Z,58.96
2023-04-27T21:18:39.987Z,60.28
2023-04-27T21:20:42.339Z,61.11
2023-04-27T21:22:44.920Z,61.81
2023-04-27T21:24:47.206Z,62.26
2023-04-27T21:26:49.587Z,62.77
2023-04-27T21:28:52.207Z,63.51
2023-04-27T21:30:54.492Z,64.35
2023-04-27T21:32:56.948Z,66.07
2023-04-27T21:34:59.603Z,67.08
2023-04-27T21:37:01.921Z,68.92
2023-04-27T21:39:04.329Z,69.44
2023-04-27T21:41:06.870Z,70.10
2023-04-27T21:43:09.260Z,69.63
2023-04-27T21:45:11.684Z,68.92
2023-04-27T21:47:14.363Z,69.01
2023-04-27T21:49:16.690Z,70.76
2023-04-27T21:51:19.077Z,73.57
2023-04-27T21:53:22.640Z,74.52
2023-04-27T21:55:24.974Z,74.92
2023-04-27T21:57:27.371Z,74.80
2023-04-27T21:59:30.140Z,75.59
2023-04-27T22:01:33.238Z,76.21
2023-04-27T22:03:37.125Z,76.85
2023-04-27T22:05:39.996Z,76.99
2023-04-27T22:07:42.505Z,79.07
2023-04-27T22:09:45.230Z,79.96
2023-04-27T22:11:47.478Z,79.79
2023-04-27T22:13:49.769Z,80.84
2023-04-27T22:15:52.696Z,80.58
2023-04-27T22:17:55.901Z,81.17
2023-04-27T22:19:58.574Z,81.00
2023-04-27T22:22:01.127Z,81.39
2023-04-27T22:24:03.614Z,81.38
2023-04-27T22:26:07.698Z,80.88
